sensor_id;sensor_type;location;lat;lon;timestamp;P1;durP1;ratioP1;P2;durP2;ratioP2
76290;SDS011;65100;46.884;17.410;2023-04-07T00:01:46;20.75;;;11.95;;
76290;SDS011;65100;46.884;17.410;2023-04-07T00:04:11;22.13;;;11.83;;
76290;SDS011;65100;46.884;17.410;2023-04-07T00:06:36;21.73;;;12.30;;
76290;SDS011;65100;46.884;17.410;2023-04-07T00:09:02;21.57;;;12.10;;
76290;SDS011;65100;46.884;17.410;2023-04-07T00:11:27;24.13;;;12.70;;
76290;SDS011;65100;46.884;17.410;2023-04-07T00:13:53;25.23;;;12.47;;
76290;SDS011;65100;46.884;17.410;2023-04-07T00:16:18;22.05;;;11.80;;
76290;SDS011;65100;46.884;17.410;2023-04-07T00:18:44;24.33;;;12.13;;
76290;SDS011;65100;46.884;17.410;2023-04-07T00:21:09;23.33;;;11.97;;
76290;SDS011;65100;46.884;17.410;2023-04-07T00:23:34;21.92;;;12.65;;
76290;SDS011;65100;46.884;17.410;2023-04-07T00:26:00;23.73;;;13.07;;
76290;SDS011;65100;46.884;17.410;2023-04-07T00:28:26;24.57;;;11.83;;
76290;SDS011;65100;46.884;17.410;2023-04-07T00:30:51;22.88;;;12.85;;
76290;SDS011;65100;46.884;17.410;2023-04-07T00:33:17;24.73;;;13.00;;
76290;SDS011;65100;46.884;17.410;2023-04-07T00:35:42;22.57;;;12.03;;
76290;SDS011;65100;46.884;17.410;2023-04-07T00:38:07;22.85;;;12.15;;
76290;SDS011;65100;46.884;17.410;2023-04-07T00:43:43;22.23;;;11.77;;
76290;SDS011;65100;46.884;17.410;2023-04-07T00:46:09;24.20;;;12.93;;
76290;SDS011;65100;46.884;17.410;2023-04-07T00:48:35;22.03;;;12.83;;
76290;SDS011;65100;46.884;17.410;2023-04-07T00:51:01;24.17;;;12.95;;
76290;SDS011;65100;46.884;17.410;2023-04-07T00:53:28;23.10;;;12.50;;
76290;SDS011;65100;46.884;17.410;2023-04-07T00:55:53;22.90;;;13.00;;
76290;SDS011;65100;46.884;17.410;2023-04-07T00:58:19;22.70;;;12.05;;
76290;SDS011;65100;46.884;17.410;2023-04-07T01:00:47;24.37;;;12.80;;
76290;SDS011;65100;46.884;17.410;2023-04-07T01:03:19;24.25;;;13.35;;
76290;SDS011;65100;46.884;17.410;2023-04-07T01:05:54;23.58;;;13.20;;
76290;SDS011;65100;46.884;17.410;2023-04-07T01:11:24;25.23;;;13.63;;
76290;SDS011;65100;46.884;17.410;2023-04-07T01:13:54;22.42;;;12.23;;
76290;SDS011;65100;46.884;17.410;2023-04-07T01:19:44;22.67;;;12.98;;
76290;SDS011;65100;46.884;17.410;2023-04-07T01:22:00;26.10;;;13.70;;
76290;SDS011;65100;46.884;17.410;2023-04-07T01:24:38;24.27;;;13.73;;
76290;SDS011;65100;46.884;17.410;2023-04-07T01:27:18;23.70;;;12.73;;
76290;SDS011;65100;46.884;17.410;2023-04-07T01:29:49;25.23;;;13.80;;
76290;SDS011;65100;46.884;17.410;2023-04-07T01:32:16;24.35;;;13.60;;
76290;SDS011;65100;46.884;17.410;2023-04-07T01:34:44;25.27;;;13.00;;
76290;SDS011;65100;46.884;17.410;2023-04-07T01:37:12;24.95;;;13.77;;
76290;SDS011;65100;46.884;17.410;2023-04-07T01:39:40;25.10;;;14.15;;
76290;SDS011;65100;46.884;17.410;2023-04-07T01:42:05;23.63;;;12.90;;
76290;SDS011;65100;46.884;17.410;2023-04-07T01:44:32;24.27;;;13.98;;
76290;SDS011;65100;46.884;17.410;2023-04-07T01:46:58;25.90;;;14.20;;
76290;SDS011;65100;46.884;17.410;2023-04-07T01:49:25;25.83;;;13.18;;
76290;SDS011;65100;46.884;17.410;2023-04-07T01:51:51;25.17;;;13.90;;
76290;SDS011;65100;46.884;17.410;2023-04-07T01:54:17;25.37;;;13.50;;
76290;SDS011;65100;46.884;17.410;2023-04-07T01:56:44;24.20;;;13.02;;
76290;SDS011;65100;46.884;17.410;2023-04-07T01:59:10;24.67;;;13.52;;
76290;SDS011;65100;46.884;17.410;2023-04-07T02:01:36;25.27;;;13.83;;
76290;SDS011;65100;46.884;17.410;2023-04-07T02:06:51;23.88;;;13.43;;
76290;SDS011;65100;46.884;17.410;2023-04-07T02:09:20;24.10;;;12.97;;
76290;SDS011;65100;46.884;17.410;2023-04-07T02:11:48;24.52;;;12.88;;
76290;SDS011;65100;46.884;17.410;2023-04-07T02:14:16;21.88;;;12.15;;
76290;SDS011;65100;46.884;17.410;2023-04-07T02:16:45;22.08;;;12.13;;
76290;SDS011;65100;46.884;17.410;2023-04-07T02:19:11;22.77;;;11.93;;
76290;SDS011;65100;46.884;17.410;2023-04-07T02:21:37;24.83;;;12.50;;
76290;SDS011;65100;46.884;17.410;2023-04-07T02:24:05;22.10;;;12.75;;
76290;SDS011;65100;46.884;17.410;2023-04-07T02:26:34;24.77;;;12.47;;
76290;SDS011;65100;46.884;17.410;2023-04-07T02:29:00;23.88;;;12.40;;
76290;SDS011;65100;46.884;17.410;2023-04-07T02:31:29;22.63;;;12.40;;
76290;SDS011;65100;46.884;17.410;2023-04-07T02:33:55;22.40;;;11.65;;
76290;SDS011;65100;46.884;17.410;2023-04-07T02:36:20;22.97;;;12.63;;
76290;SDS011;65100;46.884;17.410;2023-04-07T02:38:46;25.83;;;13.33;;
76290;SDS011;65100;46.884;17.410;2023-04-07T02:41:11;21.93;;;11.57;;
76290;SDS011;65100;46.884;17.410;2023-04-07T02:43:37;22.55;;;12.45;;
76290;SDS011;65100;46.884;17.410;2023-04-07T02:46:02;22.70;;;12.57;;
76290;SDS011;65100;46.884;17.410;2023-04-07T02:48:28;23.23;;;12.70;;
76290;SDS011;65100;46.884;17.410;2023-04-07T02:50:53;22.17;;;12.43;;
76290;SDS011;65100;46.884;17.410;2023-04-07T02:53:18;25.43;;;12.70;;
76290;SDS011;65100;46.884;17.410;2023-04-07T02:55:44;24.30;;;13.27;;
76290;SDS011;65100;46.884;17.410;2023-04-07T02:58:10;24.05;;;12.93;;
76290;SDS011;65100;46.884;17.410;2023-04-07T03:00:35;25.57;;;13.67;;
76290;SDS011;65100;46.884;17.410;2023-04-07T03:03:01;23.00;;;12.57;;
76290;SDS011;65100;46.884;17.410;2023-04-07T03:05:26;24.43;;;12.07;;
76290;SDS011;65100;46.884;17.410;2023-04-07T03:07:52;23.67;;;12.60;;
76290;SDS011;65100;46.884;17.410;2023-04-07T03:10:17;23.83;;;12.63;;
76290;SDS011;65100;46.884;17.410;2023-04-07T03:12:43;20.95;;;11.40;;
76290;SDS011;65100;46.884;17.410;2023-04-07T03:15:08;23.63;;;13.17;;
76290;SDS011;65100;46.884;17.410;2023-04-07T03:17:34;23.27;;;11.35;;
76290;SDS011;65100;46.884;17.410;2023-04-07T03:20:00;21.30;;;11.63;;
76290;SDS011;65100;46.884;17.410;2023-04-07T03:22:26;25.02;;;11.95;;
76290;SDS011;65100;46.884;17.410;2023-04-07T03:24:51;23.07;;;12.60;;
76290;SDS011;65100;46.884;17.410;2023-04-07T03:27:16;22.83;;;12.18;;
76290;SDS011;65100;46.884;17.410;2023-04-07T03:29:42;22.80;;;11.80;;
76290;SDS011;65100;46.884;17.410;2023-04-07T03:32:08;22.67;;;12.50;;
76290;SDS011;65100;46.884;17.410;2023-04-07T03:34:33;24.92;;;12.85;;
76290;SDS011;65100;46.884;17.410;2023-04-07T03:36:58;23.03;;;12.20;;
76290;SDS011;65100;46.884;17.410;2023-04-07T03:39:24;23.50;;;11.97;;
76290;SDS011;65100;46.884;17.410;2023-04-07T03:41:50;22.92;;;12.55;;
76290;SDS011;65100;46.884;17.410;2023-04-07T03:44:16;23.92;;;12.32;;
76290;SDS011;65100;46.884;17.410;2023-04-07T03:46:41;21.50;;;11.13;;
76290;SDS011;65100;46.884;17.410;2023-04-07T03:49:07;24.33;;;12.50;;
76290;SDS011;65100;46.884;17.410;2023-04-07T03:51:32;24.58;;;12.55;;
76290;SDS011;65100;46.884;17.410;2023-04-07T03:53:58;24.23;;;12.60;;
76290;SDS011;65100;46.884;17.410;2023-04-07T03:56:23;24.30;;;13.90;;
76290;SDS011;65100;46.884;17.410;2023-04-07T03:58:49;26.35;;;13.52;;
76290;SDS011;65100;46.884;17.410;2023-04-07T04:01:15;27.58;;;13.52;;
76290;SDS011;65100;46.884;17.410;2023-04-07T04:03:41;27.13;;;14.10;;
76290;SDS011;65100;46.884;17.410;2023-04-07T04:06:06;26.45;;;13.85;;
76290;SDS011;65100;46.884;17.410;2023-04-07T04:08:32;26.43;;;14.37;;
76290;SDS011;65100;46.884;17.410;2023-04-07T04:10:57;24.90;;;13.37;;
76290;SDS011;65100;46.884;17.410;2023-04-07T04:13:23;26.60;;;13.70;;
76290;SDS011;65100;46.884;17.410;2023-04-07T04:15:48;25.40;;;13.17;;
76290;SDS011;65100;46.884;17.410;2023-04-07T04:18:14;27.27;;;13.80;;
76290;SDS011;65100;46.884;17.410;2023-04-07T04:20:39;24.90;;;13.88;;
76290;SDS011;65100;46.884;17.410;2023-04-07T04:23:05;24.43;;;13.13;;
76290;SDS011;65100;46.884;17.410;2023-04-07T04:25:30;24.27;;;13.35;;
76290;SDS011;65100;46.884;17.410;2023-04-07T04:27:56;26.33;;;14.17;;
76290;SDS011;65100;46.884;17.410;2023-04-07T04:30:21;24.40;;;13.83;;
76290;SDS011;65100;46.884;17.410;2023-04-07T04:32:47;25.33;;;13.63;;
76290;SDS011;65100;46.884;17.410;2023-04-07T04:35:13;26.03;;;14.20;;
76290;SDS011;65100;46.884;17.410;2023-04-07T04:37:39;24.90;;;14.07;;
76290;SDS011;65100;46.884;17.410;2023-04-07T04:40:05;26.75;;;13.82;;
76290;SDS011;65100;46.884;17.410;2023-04-07T04:42:32;24.83;;;14.03;;
76290;SDS011;65100;46.884;17.410;2023-04-07T04:44:58;26.45;;;14.50;;
76290;SDS011;65100;46.884;17.410;2023-04-07T04:47:24;27.35;;;14.02;;
76290;SDS011;65100;46.884;17.410;2023-04-07T04:49:50;27.03;;;14.37;;
76290;SDS011;65100;46.884;17.410;2023-04-07T04:52:15;24.45;;;13.00;;
76290;SDS011;65100;46.884;17.410;2023-04-07T04:54:41;25.63;;;13.47;;
76290;SDS011;65100;46.884;17.410;2023-04-07T04:57:06;28.13;;;14.93;;
76290;SDS011;65100;46.884;17.410;2023-04-07T04:59:32;30.07;;;15.00;;
76290;SDS011;65100;46.884;17.410;2023-04-07T05:01:58;26.45;;;14.38;;
76290;SDS011;65100;46.884;17.410;2023-04-07T05:04:23;32.27;;;15.33;;
76290;SDS011;65100;46.884;17.410;2023-04-07T05:06:49;27.67;;;14.70;;
76290;SDS011;65100;46.884;17.410;2023-04-07T05:09:15;27.17;;;13.90;;
76290;SDS011;65100;46.884;17.410;2023-04-07T05:11:41;29.35;;;14.27;;
76290;SDS011;65100;46.884;17.410;2023-04-07T05:14:07;28.33;;;14.25;;
76290;SDS011;65100;46.884;17.410;2023-04-07T05:16:34;28.67;;;15.47;;
76290;SDS011;65100;46.884;17.410;2023-04-07T05:18:59;27.95;;;14.93;;
76290;SDS011;65100;46.884;17.410;2023-04-07T05:21:25;26.50;;;14.20;;
76290;SDS011;65100;46.884;17.410;2023-04-07T05:23:51;28.77;;;14.83;;
76290;SDS011;65100;46.884;17.410;2023-04-07T05:26:17;28.50;;;15.32;;
76290;SDS011;65100;46.884;17.410;2023-04-07T05:28:42;25.77;;;14.00;;
76290;SDS011;65100;46.884;17.410;2023-04-07T05:31:08;28.00;;;14.40;;
76290;SDS011;65100;46.884;17.410;2023-04-07T05:33:33;26.95;;;14.68;;
76290;SDS011;65100;46.884;17.410;2023-04-07T05:35:58;25.70;;;15.03;;
76290;SDS011;65100;46.884;17.410;2023-04-07T05:38:24;30.77;;;15.73;;
76290;SDS011;65100;46.884;17.410;2023-04-07T05:40:50;28.70;;;13.23;;
76290;SDS011;65100;46.884;17.410;2023-04-07T05:43:15;26.40;;;14.07;;
76290;SDS011;65100;46.884;17.410;2023-04-07T05:45:41;26.80;;;14.70;;
76290;SDS011;65100;46.884;17.410;2023-04-07T05:48:06;26.00;;;13.87;;
76290;SDS011;65100;46.884;17.410;2023-04-07T05:50:31;26.30;;;13.67;;
76290;SDS011;65100;46.884;17.410;2023-04-07T05:52:57;27.33;;;14.60;;
76290;SDS011;65100;46.884;17.410;2023-04-07T05:55:22;26.77;;;14.30;;
76290;SDS011;65100;46.884;17.410;2023-04-07T05:57:48;28.73;;;14.90;;
76290;SDS011;65100;46.884;17.410;2023-04-07T06:00:13;26.10;;;14.30;;
76290;SDS011;65100;46.884;17.410;2023-04-07T06:02:39;27.90;;;13.88;;
76290;SDS011;65100;46.884;17.410;2023-04-07T06:05:05;27.50;;;14.23;;
76290;SDS011;65100;46.884;17.410;2023-04-07T06:07:31;26.88;;;14.27;;
76290;SDS011;65100;46.884;17.410;2023-04-07T06:09:57;28.53;;;15.40;;
76290;SDS011;65100;46.884;17.410;2023-04-07T06:12:22;28.27;;;13.60;;
76290;SDS011;65100;46.884;17.410;2023-04-07T06:14:54;25.87;;;13.60;;
76290;SDS011;65100;46.884;17.410;2023-04-07T06:17:20;27.80;;;13.95;;
76290;SDS011;65100;46.884;17.410;2023-04-07T06:19:45;27.80;;;14.50;;
76290;SDS011;65100;46.884;17.410;2023-04-07T06:22:11;27.63;;;14.23;;
76290;SDS011;65100;46.884;17.410;2023-04-07T06:24:36;26.43;;;14.60;;
76290;SDS011;65100;46.884;17.410;2023-04-07T06:27:02;26.90;;;14.90;;
76290;SDS011;65100;46.884;17.410;2023-04-07T06:29:28;25.90;;;12.97;;
76290;SDS011;65100;46.884;17.410;2023-04-07T06:31:54;27.90;;;14.55;;
76290;SDS011;65100;46.884;17.410;2023-04-07T06:34:19;27.03;;;14.50;;
76290;SDS011;65100;46.884;17.410;2023-04-07T06:36:45;26.53;;;14.13;;
76290;SDS011;65100;46.884;17.410;2023-04-07T06:39:10;27.03;;;15.30;;
76290;SDS011;65100;46.884;17.410;2023-04-07T06:41:36;27.13;;;15.20;;
76290;SDS011;65100;46.884;17.410;2023-04-07T06:44:03;28.35;;;15.13;;
76290;SDS011;65100;46.884;17.410;2023-04-07T06:46:28;26.75;;;14.13;;
76290;SDS011;65100;46.884;17.410;2023-04-07T06:48:54;24.40;;;13.53;;
76290;SDS011;65100;46.884;17.410;2023-04-07T06:51:20;27.20;;;14.55;;
76290;SDS011;65100;46.884;17.410;2023-04-07T06:53:45;25.97;;;13.90;;
76290;SDS011;65100;46.884;17.410;2023-04-07T06:56:12;23.88;;;12.23;;
76290;SDS011;65100;46.884;17.410;2023-04-07T06:58:38;27.33;;;14.57;;
76290;SDS011;65100;46.884;17.410;2023-04-07T07:01:04;28.20;;;14.77;;
76290;SDS011;65100;46.884;17.410;2023-04-07T07:03:30;26.23;;;13.60;;
76290;SDS011;65100;46.884;17.410;2023-04-07T07:05:57;24.58;;;13.18;;
76290;SDS011;65100;46.884;17.410;2023-04-07T07:08:23;27.05;;;14.25;;
76290;SDS011;65100;46.884;17.410;2023-04-07T07:10:50;28.08;;;14.25;;
76290;SDS011;65100;46.884;17.410;2023-04-07T07:13:17;27.83;;;14.50;;
76290;SDS011;65100;46.884;17.410;2023-04-07T07:15:43;27.13;;;13.55;;
76290;SDS011;65100;46.884;17.410;2023-04-07T07:18:10;28.27;;;13.90;;
76290;SDS011;65100;46.884;17.410;2023-04-07T07:20:36;26.70;;;14.20;;
76290;SDS011;65100;46.884;17.410;2023-04-07T07:23:01;23.55;;;11.65;;
76290;SDS011;65100;46.884;17.410;2023-04-07T07:25:27;25.90;;;14.33;;
76290;SDS011;65100;46.884;17.410;2023-04-07T07:27:52;27.85;;;14.35;;
76290;SDS011;65100;46.884;17.410;2023-04-07T07:30:21;26.80;;;15.20;;
76290;SDS011;65100;46.884;17.410;2023-04-07T07:32:48;26.73;;;13.40;;
76290;SDS011;65100;46.884;17.410;2023-04-07T07:35:14;25.50;;;13.80;;
76290;SDS011;65100;46.884;17.410;2023-04-07T07:37:40;27.37;;;13.97;;
76290;SDS011;65100;46.884;17.410;2023-04-07T07:40:06;24.38;;;13.75;;
76290;SDS011;65100;46.884;17.410;2023-04-07T07:42:31;26.47;;;12.43;;
76290;SDS011;65100;46.884;17.410;2023-04-07T07:44:57;28.83;;;15.60;;
76290;SDS011;65100;46.884;17.410;2023-04-07T07:47:23;27.17;;;13.23;;
76290;SDS011;65100;46.884;17.410;2023-04-07T07:49:50;25.73;;;13.63;;
76290;SDS011;65100;46.884;17.410;2023-04-07T07:52:15;28.52;;;15.55;;
76290;SDS011;65100;46.884;17.410;2023-04-07T07:54:41;25.77;;;14.17;;
76290;SDS011;65100;46.884;17.410;2023-04-07T07:57:06;26.37;;;13.97;;
76290;SDS011;65100;46.884;17.410;2023-04-07T07:59:32;27.08;;;14.52;;
76290;SDS011;65100;46.884;17.410;2023-04-07T08:02:18;26.90;;;13.55;;
76290;SDS011;65100;46.884;17.410;2023-04-07T08:04:44;26.83;;;13.83;;
76290;SDS011;65100;46.884;17.410;2023-04-07T08:07:09;25.83;;;14.17;;
76290;SDS011;65100;46.884;17.410;2023-04-07T08:09:36;25.90;;;14.57;;
76290;SDS011;65100;46.884;17.410;2023-04-07T08:12:01;26.05;;;15.20;;
76290;SDS011;65100;46.884;17.410;2023-04-07T08:14:27;27.05;;;14.63;;
76290;SDS011;65100;46.884;17.410;2023-04-07T08:16:53;25.90;;;12.90;;
76290;SDS011;65100;46.884;17.410;2023-04-07T08:19:19;22.05;;;11.48;;
76290;SDS011;65100;46.884;17.410;2023-04-07T08:21:45;28.27;;;13.43;;
76290;SDS011;65100;46.884;17.410;2023-04-07T08:24:10;24.63;;;12.10;;
76290;SDS011;65100;46.884;17.410;2023-04-07T08:26:36;26.00;;;13.57;;
76290;SDS011;65100;46.884;17.410;2023-04-07T08:29:02;23.52;;;11.55;;
76290;SDS011;65100;46.884;17.410;2023-04-07T08:31:27;25.63;;;13.63;;
76290;SDS011;65100;46.884;17.410;2023-04-07T08:33:53;27.02;;;13.90;;
76290;SDS011;65100;46.884;17.410;2023-04-07T08:36:22;24.63;;;12.67;;
76290;SDS011;65100;46.884;17.410;2023-04-07T08:38:52;22.70;;;10.70;;
76290;SDS011;65100;46.884;17.410;2023-04-07T08:41:19;23.27;;;12.05;;
76290;SDS011;65100;46.884;17.410;2023-04-07T08:43:51;25.73;;;13.77;;
76290;SDS011;65100;46.884;17.410;2023-04-07T08:46:18;25.97;;;13.53;;
76290;SDS011;65100;46.884;17.410;2023-04-07T08:48:47;23.48;;;12.30;;
76290;SDS011;65100;46.884;17.410;2023-04-07T08:51:16;21.42;;;11.55;;
76290;SDS011;65100;46.884;17.410;2023-04-07T08:53:51;25.83;;;12.57;;
76290;SDS011;65100;46.884;17.410;2023-04-07T08:56:18;22.83;;;12.63;;
76290;SDS011;65100;46.884;17.410;2023-04-07T08:58:46;21.35;;;11.02;;
76290;SDS011;65100;46.884;17.410;2023-04-07T09:01:12;21.45;;;11.80;;
76290;SDS011;65100;46.884;17.410;2023-04-07T09:03:40;24.30;;;11.68;;
76290;SDS011;65100;46.884;17.410;2023-04-07T09:06:06;22.98;;;12.38;;
76290;SDS011;65100;46.884;17.410;2023-04-07T09:08:34;19.17;;;9.23;;
76290;SDS011;65100;46.884;17.410;2023-04-07T09:11:00;25.20;;;12.05;;
76290;SDS011;65100;46.884;17.410;2023-04-07T09:13:26;17.55;;;8.38;;
76290;SDS011;65100;46.884;17.410;2023-04-07T09:15:52;22.30;;;12.23;;
76290;SDS011;65100;46.884;17.410;2023-04-07T09:18:18;21.80;;;10.18;;
76290;SDS011;65100;46.884;17.410;2023-04-07T09:20:53;22.40;;;11.60;;
76290;SDS011;65100;46.884;17.410;2023-04-07T09:23:26;21.30;;;10.80;;
76290;SDS011;65100;46.884;17.410;2023-04-07T09:28:58;20.88;;;12.07;;
76290;SDS011;65100;46.884;17.410;2023-04-07T09:34:30;22.47;;;13.00;;
76290;SDS011;65100;46.884;17.410;2023-04-07T09:36:58;23.33;;;12.23;;
76290;SDS011;65100;46.884;17.410;2023-04-07T09:39:24;22.75;;;12.38;;
76290;SDS011;65100;46.884;17.410;2023-04-07T09:41:49;24.00;;;11.83;;
76290;SDS011;65100;46.884;17.410;2023-04-07T09:44:16;24.08;;;11.77;;
76290;SDS011;65100;46.884;17.410;2023-04-07T09:46:48;25.27;;;12.45;;
76290;SDS011;65100;46.884;17.410;2023-04-07T09:49:14;20.30;;;9.88;;
76290;SDS011;65100;46.884;17.410;2023-04-07T09:51:53;22.70;;;11.45;;
76290;SDS011;65100;46.884;17.410;2023-04-07T09:54:32;21.63;;;10.30;;
76290;SDS011;65100;46.884;17.410;2023-04-07T09:57:00;21.52;;;10.60;;
76290;SDS011;65100;46.884;17.410;2023-04-07T09:59:27;22.20;;;12.23;;
76290;SDS011;65100;46.884;17.410;2023-04-07T10:01:54;22.67;;;11.82;;
76290;SDS011;65100;46.884;17.410;2023-04-07T10:04:19;21.87;;;10.33;;
76290;SDS011;65100;46.884;17.410;2023-04-07T10:06:46;21.90;;;12.88;;
76290;SDS011;65100;46.884;17.410;2023-04-07T10:09:12;21.05;;;11.55;;
76290;SDS011;65100;46.884;17.410;2023-04-07T10:11:39;22.30;;;12.00;;
76290;SDS011;65100;46.884;17.410;2023-04-07T10:14:06;22.37;;;11.33;;
76290;SDS011;65100;46.884;17.410;2023-04-07T10:16:33;21.15;;;11.32;;
76290;SDS011;65100;46.884;17.410;2023-04-07T10:19:00;21.33;;;11.30;;
76290;SDS011;65100;46.884;17.410;2023-04-07T10:21:26;18.02;;;9.85;;
76290;SDS011;65100;46.884;17.410;2023-04-07T10:26:27;19.87;;;11.03;;
76290;SDS011;65100;46.884;17.410;2023-04-07T10:28:59;20.25;;;10.02;;
76290;SDS011;65100;46.884;17.410;2023-04-07T10:31:30;20.95;;;11.45;;
76290;SDS011;65100;46.884;17.410;2023-04-07T10:33:56;21.75;;;11.60;;
76290;SDS011;65100;46.884;17.410;2023-04-07T10:36:22;19.50;;;10.50;;
76290;SDS011;65100;46.884;17.410;2023-04-07T10:41:37;19.92;;;10.38;;
76290;SDS011;65100;46.884;17.410;2023-04-07T10:44:08;19.80;;;10.68;;
76290;SDS011;65100;46.884;17.410;2023-04-07T10:49:09;18.50;;;9.40;;
76290;SDS011;65100;46.884;17.410;2023-04-07T10:51:37;18.33;;;8.70;;
76290;SDS011;65100;46.884;17.410;2023-04-07T10:54:19;19.70;;;10.15;;
76290;SDS011;65100;46.884;17.410;2023-04-07T10:59:27;19.63;;;11.30;;
76290;SDS011;65100;46.884;17.410;2023-04-07T11:02:39;19.13;;;10.27;;
76290;SDS011;65100;46.884;17.410;2023-04-07T11:04:54;18.67;;;9.65;;
76290;SDS011;65100;46.884;17.410;2023-04-07T11:07:22;20.63;;;10.38;;
76290;SDS011;65100;46.884;17.410;2023-04-07T11:10:12;18.85;;;9.75;;
76290;SDS011;65100;46.884;17.410;2023-04-07T11:12:39;20.20;;;10.23;;
76290;SDS011;65100;46.884;17.410;2023-04-07T11:15:38;20.08;;;10.43;;
76290;SDS011;65100;46.884;17.410;2023-04-07T11:18:11;18.80;;;10.37;;
76290;SDS011;65100;46.884;17.410;2023-04-07T11:23:48;17.80;;;9.27;;
76290;SDS011;65100;46.884;17.410;2023-04-07T11:26:14;17.00;;;7.33;;
76290;SDS011;65100;46.884;17.410;2023-04-07T11:28:53;21.65;;;10.57;;
76290;SDS011;65100;46.884;17.410;2023-04-07T11:31:26;21.60;;;11.00;;
76290;SDS011;65100;46.884;17.410;2023-04-07T11:33:57;21.17;;;11.85;;
76290;SDS011;65100;46.884;17.410;2023-04-07T11:36:47;19.33;;;10.40;;
76290;SDS011;65100;46.884;17.410;2023-04-07T11:39:18;19.92;;;10.13;;
76290;SDS011;65100;46.884;17.410;2023-04-07T11:41:45;19.55;;;10.60;;
76290;SDS011;65100;46.884;17.410;2023-04-07T11:44:12;24.00;;;10.27;;
76290;SDS011;65100;46.884;17.410;2023-04-07T11:49:43;20.10;;;11.53;;
76290;SDS011;65100;46.884;17.410;2023-04-07T11:52:10;21.13;;;11.15;;
76290;SDS011;65100;46.884;17.410;2023-04-07T11:54:42;21.07;;;11.60;;
76290;SDS011;65100;46.884;17.410;2023-04-07T11:57:24;21.17;;;10.80;;
76290;SDS011;65100;46.884;17.410;2023-04-07T12:00:07;21.35;;;10.80;;
76290;SDS011;65100;46.884;17.410;2023-04-07T12:02:34;20.98;;;10.20;;
76290;SDS011;65100;46.884;17.410;2023-04-07T12:05:01;22.23;;;9.80;;
76290;SDS011;65100;46.884;17.410;2023-04-07T12:07:26;22.67;;;10.77;;
76290;SDS011;65100;46.884;17.410;2023-04-07T12:09:52;17.10;;;8.85;;
76290;SDS011;65100;46.884;17.410;2023-04-07T12:12:27;22.53;;;11.03;;
76290;SDS011;65100;46.884;17.410;2023-04-07T12:14:54;21.70;;;10.90;;
76290;SDS011;65100;46.884;17.410;2023-04-07T12:17:20;21.80;;;11.63;;
76290;SDS011;65100;46.884;17.410;2023-04-07T12:19:51;19.52;;;10.75;;
76290;SDS011;65100;46.884;17.410;2023-04-07T12:22:17;22.55;;;11.57;;
76290;SDS011;65100;46.884;17.410;2023-04-07T12:24:43;23.17;;;11.97;;
76290;SDS011;65100;46.884;17.410;2023-04-07T12:27:08;21.42;;;11.82;;
76290;SDS011;65100;46.884;17.410;2023-04-07T12:29:34;23.00;;;12.23;;
76290;SDS011;65100;46.884;17.410;2023-04-07T12:32:01;23.83;;;12.48;;
76290;SDS011;65100;46.884;17.410;2023-04-07T12:34:29;23.77;;;11.93;;
76290;SDS011;65100;46.884;17.410;2023-04-07T12:36:55;22.30;;;11.77;;
76290;SDS011;65100;46.884;17.410;2023-04-07T12:39:21;23.67;;;11.75;;
76290;SDS011;65100;46.884;17.410;2023-04-07T12:41:46;21.77;;;12.07;;
76290;SDS011;65100;46.884;17.410;2023-04-07T12:44:13;24.52;;;12.05;;
76290;SDS011;65100;46.884;17.410;2023-04-07T12:46:39;21.15;;;12.50;;
76290;SDS011;65100;46.884;17.410;2023-04-07T12:49:05;20.37;;;10.80;;
76290;SDS011;65100;46.884;17.410;2023-04-07T12:51:30;22.33;;;10.13;;
76290;SDS011;65100;46.884;17.410;2023-04-07T12:53:57;19.25;;;10.38;;
76290;SDS011;65100;46.884;17.410;2023-04-07T12:56:24;20.25;;;10.25;;
76290;SDS011;65100;46.884;17.410;2023-04-07T12:58:50;20.50;;;10.90;;
76290;SDS011;65100;46.884;17.410;2023-04-07T13:01:17;21.40;;;11.20;;
76290;SDS011;65100;46.884;17.410;2023-04-07T13:03:42;19.48;;;10.40;;
76290;SDS011;65100;46.884;17.410;2023-04-07T13:06:08;21.70;;;11.33;;
76290;SDS011;65100;46.884;17.410;2023-04-07T13:08:34;21.63;;;11.35;;
76290;SDS011;65100;46.884;17.410;2023-04-07T13:11:00;20.60;;;10.20;;
76290;SDS011;65100;46.884;17.410;2023-04-07T13:13:26;19.58;;;10.70;;
76290;SDS011;65100;46.884;17.410;2023-04-07T13:15:51;21.37;;;11.30;;
76290;SDS011;65100;46.884;17.410;2023-04-07T13:18:17;20.65;;;11.27;;
76290;SDS011;65100;46.884;17.410;2023-04-07T13:20:42;22.77;;;11.27;;
76290;SDS011;65100;46.884;17.410;2023-04-07T13:23:08;22.58;;;11.65;;
76290;SDS011;65100;46.884;17.410;2023-04-07T13:25:34;21.07;;;11.37;;
76290;SDS011;65100;46.884;17.410;2023-04-07T13:28:00;20.88;;;11.30;;
76290;SDS011;65100;46.884;17.410;2023-04-07T13:30:25;21.50;;;10.10;;
76290;SDS011;65100;46.884;17.410;2023-04-07T13:32:51;20.58;;;10.13;;
76290;SDS011;65100;46.884;17.410;2023-04-07T13:35:17;21.10;;;10.77;;
76290;SDS011;65100;46.884;17.410;2023-04-07T13:37:43;20.92;;;10.70;;
76290;SDS011;65100;46.884;17.410;2023-04-07T13:40:09;21.87;;;10.70;;
76290;SDS011;65100;46.884;17.410;2023-04-07T13:42:36;22.17;;;10.77;;
76290;SDS011;65100;46.884;17.410;2023-04-07T13:45:02;22.73;;;11.35;;
76290;SDS011;65100;46.884;17.410;2023-04-07T13:47:28;20.55;;;11.30;;
76290;SDS011;65100;46.884;17.410;2023-04-07T13:49:57;22.95;;;11.63;;
76290;SDS011;65100;46.884;17.410;2023-04-07T13:52:23;19.80;;;10.60;;
76290;SDS011;65100;46.884;17.410;2023-04-07T13:54:49;23.10;;;11.90;;
76290;SDS011;65100;46.884;17.410;2023-04-07T13:57:14;15.57;;;8.18;;
76290;SDS011;65100;46.884;17.410;2023-04-07T13:59:44;21.80;;;11.05;;
76290;SDS011;65100;46.884;17.410;2023-04-07T14:02:13;24.92;;;11.98;;
76290;SDS011;65100;46.884;17.410;2023-04-07T14:04:39;24.00;;;10.70;;
76290;SDS011;65100;46.884;17.410;2023-04-07T14:07:05;23.92;;;11.48;;
76290;SDS011;65100;46.884;17.410;2023-04-07T14:09:30;24.67;;;12.33;;
76290;SDS011;65100;46.884;17.410;2023-04-07T14:11:56;20.10;;;9.88;;
76290;SDS011;65100;46.884;17.410;2023-04-07T14:14:22;20.83;;;10.03;;
76290;SDS011;65100;46.884;17.410;2023-04-07T14:16:47;23.35;;;12.23;;
76290;SDS011;65100;46.884;17.410;2023-04-07T14:19:16;25.73;;;13.77;;
76290;SDS011;65100;46.884;17.410;2023-04-07T14:21:44;25.77;;;12.48;;
76290;SDS011;65100;46.884;17.410;2023-04-07T14:24:09;27.00;;;14.02;;
76290;SDS011;65100;46.884;17.410;2023-04-07T14:26:35;27.00;;;11.63;;
76290;SDS011;65100;46.884;17.410;2023-04-07T14:29:00;20.93;;;10.63;;
76290;SDS011;65100;46.884;17.410;2023-04-07T14:31:26;26.38;;;12.77;;
76290;SDS011;65100;46.884;17.410;2023-04-07T14:33:51;25.47;;;12.33;;
76290;SDS011;65100;46.884;17.410;2023-04-07T14:36:17;23.10;;;10.83;;
76290;SDS011;65100;46.884;17.410;2023-04-07T14:38:42;24.35;;;12.25;;
76290;SDS011;65100;46.884;17.410;2023-04-07T14:41:08;23.03;;;11.53;;
76290;SDS011;65100;46.884;17.410;2023-04-07T14:43:34;18.20;;;9.27;;